createdAt,value
2023-01-19T00:00:49.511Z,4.49
2023-01-19T00:03:16.341Z,4.52
2023-01-19T00:05:43.857Z,4.48
2023-01-19T00:08:17.624Z,4.81
2023-01-19T00:10:50.891Z,4.82
2023-01-19T00:13:17.744Z,4.75
2023-01-19T00:15:45.319Z,4.82
2023-01-19T00:18:12.052Z,4.72
2023-01-19T00:20:42.045Z,4.79
2023-01-19T00:23:09.367Z,4.76
2023-01-19T00:25:42.200Z,4.79
2023-01-19T00:28:10.278Z,4.79
2023-01-19T00:30:37.507Z,4.71
2023-01-19T00:33:04.345Z,4.65
2023-01-19T00:35:31.301Z,4.91
2023-01-19T00:37:58.992Z,5.01
2023-01-19T00:40:25.749Z,5.04
2023-01-19T00:42:52.548Z,4.93
2023-01-19T00:45:22.055Z,5.20
2023-01-19T00:47:50.183Z,4.97
2023-01-19T00:50:17.301Z,5.06
2023-01-19T00:52:45.473Z,5.07
2023-01-19T00:55:14.240Z,5.00
2023-01-19T00:57:41.293Z,5.07
2023-01-19T01:00:11.873Z,5.10
2023-01-19T01:02:39.917Z,5.13
2023-01-19T01:05:07.397Z,5.22
2023-01-19T01:07:40.696Z,5.04
2023-01-19T01:10:27.929Z,5.06
2023-01-19T01:13:20.554Z,5.10
2023-01-19T01:15:41.837Z,5.19
2023-01-19T01:18:08.569Z,4.85
2023-01-19T01:20:37.364Z,4.90
2023-01-19T01:23:04.298Z,4.99
2023-01-19T01:25:31.485Z,5.08
2023-01-19T01:27:58.047Z,4.95
2023-01-19T01:30:24.720Z,5.19
2023-01-19T01:32:51.282Z,5.09
2023-01-19T01:35:18.114Z,5.13
2023-01-19T01:37:44.744Z,5.14
2023-01-19T01:40:14.133Z,5.38
2023-01-19T01:42:42.326Z,5.30
2023-01-19T01:45:40.839Z,5.47
2023-01-19T01:48:13.229Z,5.30
2023-01-19T01:51:11.080Z,5.30
2023-01-19T01:53:39.413Z,5.19
2023-01-19T01:56:10.013Z,5.17
2023-01-19T01:58:37.735Z,5.13
2023-01-19T02:01:24.590Z,5.20
2023-01-19T02:03:51.848Z,5.29
2023-01-19T02:06:18.489Z,5.38
2023-01-19T02:09:12.125Z,5.25
2023-01-19T02:11:57.902Z,5.11
2023-01-19T02:14:24.421Z,5.15
2023-01-19T02:16:51.184Z,5.09
2023-01-19T02:19:37.552Z,5.09
2023-01-19T02:22:11.788Z,5.29
2023-01-19T02:24:38.509Z,5.16
2023-01-19T02:27:05.334Z,5.19
2023-01-19T02:29:32.691Z,5.16
2023-01-19T02:31:59.761Z,5.29
2023-01-19T02:34:26.555Z,5.48
2023-01-19T02:36:56.455Z,5.36
2023-01-19T02:39:45.232Z,5.60
2023-01-19T02:42:19.345Z,5.41
2023-01-19T02:44:49.009Z,5.01
2023-01-19T02:47:16.073Z,5.10
2023-01-19T02:49:42.621Z,5.30
2023-01-19T02:52:17.231Z,5.10
2023-01-19T02:55:05.807Z,5.16
2023-01-19T02:57:32.352Z,5.22
2023-01-19T03:00:21.126Z,5.09
2023-01-19T03:02:57.846Z,5.09
2023-01-19T03:05:48.967Z,5.18
2023-01-19T03:08:35.725Z,5.31
2023-01-19T03:11:09.714Z,5.24
2023-01-19T03:13:42.664Z,5.22
2023-01-19T03:16:36.469Z,5.24
2023-01-19T03:19:10.729Z,5.02
2023-01-19T03:21:39.710Z,5.06
2023-01-19T03:24:10.412Z,5.18
2023-01-19T03:26:47.840Z,5.23
2023-01-19T03:29:17.373Z,4.94
2023-01-19T03:31:47.680Z,5.46
2023-01-19T03:34:16.922Z,4.66
2023-01-19T03:36:49.015Z,4.82
2023-01-19T03:39:21.450Z,4.78
2023-01-19T03:41:49.822Z,4.50
2023-01-19T03:44:16.996Z,4.50
2023-01-19T03:46:45.931Z,4.85
2023-01-19T03:49:12.553Z,5.17
2023-01-19T03:51:39.680Z,5.49
2023-01-19T03:54:07.631Z,5.75
2023-01-19T03:56:34.267Z,5.68
2023-01-19T03:59:00.863Z,5.57
2023-01-19T04:01:27.766Z,5.08
2023-01-19T04:03:54.547Z,5.29
2023-01-19T04:06:21.360Z,5.11
2023-01-19T04:08:49.846Z,4.91
2023-01-19T04:11:16.820Z,4.93
2023-01-19T04:13:44.671Z,5.08
2023-01-19T04:16:12.157Z,5.03
2023-01-19T04:18:40.467Z,5.20
2023-01-19T04:21:07.892Z,4.42
2023-01-19T04:23:34.883Z,4.55
2023-01-19T04:26:04.131Z,4.53
2023-01-19T04:28:31.730Z,4.31
2023-01-19T04:30:58.618Z,4.38
2023-01-19T04:33:27.681Z,4.28
2023-01-19T04:35:55.965Z,4.32
2023-01-19T04:38:23.935Z,4.45
2023-01-19T04:40:52.540Z,4.54
2023-01-19T04:43:23.062Z,4.40
2023-01-19T04:45:50.696Z,4.06
2023-01-19T04:48:18.486Z,3.71
2023-01-19T04:50:45.496Z,3.64
2023-01-19T04:53:13.569Z,3.51
2023-01-19T04:55:40.589Z,4.44
2023-01-19T04:58:07.160Z,12.20
2023-01-19T05:00:33.806Z,11.11
2023-01-19T05:03:01.555Z,9.57
2023-01-19T05:05:28.742Z,9.87
2023-01-19T05:07:55.423Z,9.43
2023-01-19T05:10:22.005Z,9.28
2023-01-19T05:12:48.637Z,9.15
2023-01-19T05:15:15.267Z,8.81
2023-01-19T05:17:42.014Z,9.03
2023-01-19T05:20:11.075Z,8.68
2023-01-19T05:22:39.090Z,8.48
2023-01-19T05:25:08.689Z,8.29
2023-01-19T05:27:36.720Z,8.71
2023-01-19T05:30:05.030Z,8.46
2023-01-19T05:32:31.615Z,8.34
2023-01-19T05:34:58.289Z,8.41
2023-01-19T05:37:24.898Z,8.90
2023-01-19T05:39:51.783Z,9.17
2023-01-19T05:42:18.321Z,8.74
2023-01-19T05:44:44.939Z,8.79
2023-01-19T05:47:11.735Z,8.87
2023-01-19T05:49:38.393Z,8.91
2023-01-19T05:52:04.919Z,9.32
2023-01-19T05:54:31.455Z,9.20
2023-01-19T05:56:58.179Z,9.43
2023-01-19T05:59:24.783Z,9.14
2023-01-19T06:01:52.506Z,8.96
2023-01-19T06:04:20.129Z,9.32
2023-01-19T06:06:50.713Z,9.02
2023-01-19T06:09:17.815Z,9.45
2023-01-19T06:11:45.474Z,9.55
2023-01-19T06:14:12.486Z,9.53
2023-01-19T06:16:39.810Z,9.42
2023-01-19T06:19:06.807Z,9.10
2023-01-19T06:21:34.276Z,9.04
2023-01-19T06:24:01.160Z,8.81
2023-01-19T06:26:27.739Z,9.34
2023-01-19T06:28:54.378Z,8.78
2023-01-19T06:31:21.177Z,8.69
2023-01-19T06:33:48.025Z,8.47
2023-01-19T06:36:14.617Z,8.65
2023-01-19T06:38:41.236Z,8.71
2023-01-19T06:41:07.791Z,8.90
2023-01-19T06:43:34.433Z,8.86
2023-01-19T06:46:01.146Z,8.71
2023-01-19T06:48:28.069Z,8.50
2023-01-19T06:50:54.895Z,8.99
2023-01-19T06:53:22.339Z,8.14
2023-01-19T06:55:48.985Z,9.48
2023-01-19T06:58:16.021Z,8.62
2023-01-19T07:00:43.055Z,8.04
2023-01-19T07:03:18.639Z,7.84
2023-01-19T07:05:45.235Z,7.73
2023-01-19T07:08:11.862Z,7.65
2023-01-19T07:11:25.245Z,7.77
2023-01-19T07:13:25.020Z,7.70
2023-01-19T07:15:51.615Z,7.93
2023-01-19T07:18:18.293Z,7.79
2023-01-19T07:20:46.695Z,7.70
2023-01-19T07:23:13.250Z,8.08
2023-01-19T07:25:40.036Z,7.97
2023-01-19T07:28:06.803Z,7.82
2023-01-19T07:30:33.484Z,7.97
2023-01-19T07:33:00.510Z,8.13
2023-01-19T07:35:27.324Z,7.96
2023-01-19T07:37:54.063Z,7.75
2023-01-19T07:40:22.161Z,7.74
2023-01-19T07:42:51.873Z,7.97
2023-01-19T07:45:20.504Z,7.71
2023-01-19T07:47:48.839Z,8.14
2023-01-19T07:50:17.033Z,8.17
2023-01-19T07:52:44.627Z,8.26
2023-01-19T07:55:11.179Z,8.06
2023-01-19T07:57:37.848Z,7.81
2023-01-19T08:00:04.988Z,7.94
2023-01-19T08:02:39.121Z,7.93
2023-01-19T08:05:06.009Z,8.24
2023-01-19T08:07:34.539Z,8.33
2023-01-19T08:10:01.051Z,8.39
2023-01-19T08:12:27.681Z,8.78
2023-01-19T08:14:54.332Z,8.75
2023-01-19T08:17:20.939Z,8.59
2023-01-19T08:19:47.442Z,8.36
2023-01-19T08:22:14.230Z,8.73
2023-01-19T08:24:40.732Z,8.64
2023-01-19T08:27:09.697Z,8.66
2023-01-19T08:29:37.103Z,8.88
2023-01-19T08:32:04.607Z,9.03
2023-01-19T08:34:31.860Z,8.95
2023-01-19T08:36:59.427Z,9.26
2023-01-19T08:39:27.243Z,9.13
2023-01-19T08:41:54.913Z,8.75
2023-01-19T08:44:21.693Z,8.95
2023-01-19T08:46:48.304Z,9.33
2023-01-19T08:49:15.692Z,9.13
2023-01-19T08:51:42.273Z,8.43
2023-01-19T08:54:09.394Z,8.68
2023-01-19T08:56:36.693Z,8.85
2023-01-19T08:59:09.906Z,8.90
2023-01-19T09:01:37.352Z,8.59
2023-01-19T09:04:04.395Z,8.72
2023-01-19T09:06:30.987Z,8.78
2023-01-19T09:08:57.637Z,8.57
2023-01-19T09:11:24.310Z,8.58
2023-01-19T09:13:50.818Z,8.55
2023-01-19T09:16:17.467Z,8.48
2023-01-19T09:18:45.665Z,8.20
2023-01-19T09:21:12.339Z,8.64
2023-01-19T09:23:38.828Z,7.97
2023-01-19T09:26:06.157Z,7.94
2023-01-19T09:28:33.061Z,7.80
2023-01-19T09:31:00.034Z,7.85
2023-01-19T09:33:26.625Z,7.85
2023-01-19T09:35:53.302Z,7.98
2023-01-19T09:38:20.380Z,8.15
2023-01-19T09:40:55.901Z,8.47
2023-01-19T09:43:37.336Z,8.18
2023-01-19T09:46:15.148Z,8.28
2023-01-19T09:48:52.290Z,8.07
2023-01-19T09:51:22.900Z,7.97
2023-01-19T09:53:56.343Z,8.22
2023-01-19T09:56:23.888Z,8.14
2023-01-19T09:58:51.575Z,8.01
2023-01-19T10:01:38.481Z,7.93
2023-01-19T10:04:31.913Z,7.98
2023-01-19T10:07:44.184Z,8.03
2023-01-19T10:10:21.507Z,8.02
2023-01-19T10:13:11.390Z,8.14
2023-01-19T10:16:00.955Z,8.00
2023-01-19T10:18:35.712Z,7.79
2023-01-19T10:21:10.429Z,8.18
2023-01-19T10:23:43.642Z,8.10
2023-01-19T10:26:16.775Z,8.57
2023-01-19T10:28:46.873Z,8.65
2023-01-19T10:31:16.898Z,9.14
2023-01-19T10:33:43.496Z,9.14
2023-01-19T10:36:17.671Z,8.82
2023-01-19T10:38:45.084Z,8.92
2023-01-19T10:41:22.144Z,9.41
2023-01-19T10:43:49.425Z,9.27
2023-01-19T10:46:33.921Z,9.36
2023-01-19T10:49:00.805Z,9.24
2023-01-19T10:51:28.653Z,8.86
2023-01-19T10:54:02.972Z,9.14
2023-01-19T10:56:35.907Z,9.29
2023-01-19T10:59:06.550Z,9.44
2023-01-19T11:01:36.931Z,9.27
2023-01-19T11:04:26.907Z,9.55
2023-01-19T11:07:13.048Z,9.32
2023-01-19T11:09:39.577Z,9.31
2023-01-19T11:12:19.790Z,9.45
2023-01-19T11:14:47.534Z,9.39
2023-01-19T11:17:25.169Z,9.17
2023-01-19T11:19:57.868Z,8.79
2023-01-19T11:22:33.014Z,8.68
2023-01-19T11:25:02.026Z,8.94
2023-01-19T11:27:30.940Z,8.95
2023-01-19T11:30:17.672Z,9.12
2023-01-19T11:32:46.573Z,9.47
2023-01-19T11:35:36.837Z,9.82
2023-01-19T11:38:12.147Z,10.14
2023-01-19T11:40:39.121Z,9.88
2023-01-19T11:43:05.765Z,9.78
2023-01-19T11:45:34.498Z,9.84
2023-01-19T11:48:05.773Z,9.43
2023-01-19T11:50:41.490Z,9.18
2023-01-19T11:53:28.121Z,8.92
2023-01-19T11:56:04.654Z,8.97
2023-01-19T11:58:33.156Z,9.07
2023-01-19T12:01:10.964Z,9.04
2023-01-19T12:03:43.119Z,9.14
2023-01-19T12:06:18.163Z,9.03
2023-01-19T12:08:49.967Z,9.08
2023-01-19T12:11:21.506Z,9.18
2023-01-19T12:13:49.177Z,9.13
2023-01-19T12:16:26.275Z,9.21
2023-01-19T12:19:00.465Z,9.27
2023-01-19T12:21:27.250Z,9.44
2023-01-19T12:24:17.852Z,9.13
2023-01-19T12:26:57.056Z,9.32
2023-01-19T12:29:35.714Z,9.22
2023-01-19T12:32:14.558Z,9.18
2023-01-19T12:34:51.940Z,9.08
2023-01-19T12:37:28.781Z,9.42
2023-01-19T12:39:57.811Z,9.49
2023-01-19T12:42:25.843Z,9.26
2023-01-19T12:45:04.625Z,9.65
2023-01-19T12:47:31.669Z,9.68
2023-01-19T12:50:05.741Z,10.07
2023-01-19T12:52:51.329Z,9.07
2023-01-19T12:55:23.109Z,9.09
2023-01-19T12:58:07.173Z,9.14
2023-01-19T13:00:39.903Z,9.27
2023-01-19T13:03:18.515Z,9.53
2023-01-19T13:05:53.119Z,9.60
2023-01-19T13:08:22.404Z,9.63
2023-01-19T13:10:54.826Z,9.51
2023-01-19T13:13:31.554Z,9.66
2023-01-19T13:16:22.304Z,9.69
2023-01-19T13:18:55.922Z,9.60
2023-01-19T13:21:49.562Z,9.58
2023-01-19T13:24:19.397Z,9.76
2023-01-19T13:26:49.022Z,9.74
2023-01-19T13:29:22.650Z,9.89
2023-01-19T13:31:49.567Z,10.19
2023-01-19T13:34:22.774Z,10.01
2023-01-19T13:36:59.242Z,10.02
2023-01-19T13:39:36.984Z,9.85
2023-01-19T13:42:18.431Z,9.92
2023-01-19T13:44:52.327Z,9.97
2023-01-19T13:47:23.778Z,10.10
2023-01-19T13:49:55.780Z,9.92
2023-01-19T13:52:27.519Z,9.92
2023-01-19T13:54:59.870Z,10.03
2023-01-19T13:57:33.648Z,10.23
2023-01-19T14:00:19.462Z,10.42
2023-01-19T14:02:55.597Z,10.42
2023-01-19T14:05:37.605Z,10.30
2023-01-19T14:08:12.303Z,10.41
2023-01-19T14:10:56.179Z,10.64
2023-01-19T14:13:25.116Z,10.80
2023-01-19T14:15:55.260Z,10.84
2023-01-19T14:18:30.010Z,10.89
2023-01-19T14:20:58.366Z,10.82
2023-01-19T14:23:40.299Z,11.45
2023-01-19T14:26:46.655Z,11.10
2023-01-19T14:29:21.510Z,10.88
2023-01-19T14:32:04.915Z,11.05
2023-01-19T14:34:42.559Z,11.02
2023-01-19T14:37:22.851Z,11.22
2023-01-19T14:40:01.583Z,11.35
2023-01-19T14:42:37.457Z,11.35
2023-01-19T14:45:16.776Z,11.17
2023-01-19T14:47:45.583Z,11.33
2023-01-19T14:50:29.400Z,11.00
2023-01-19T14:53:04.890Z,10.93
2023-01-19T14:55:55.435Z,11.26
2023-01-19T14:58:24.941Z,11.14
2023-01-19T15:00:55.652Z,11.46
2023-01-19T15:03:26.868Z,11.49
2023-01-19T15:06:03.532Z,10.82
2023-01-19T15:08:33.489Z,10.46
2023-01-19T15:11:28.526Z,10.43
2023-01-19T15:13:55.579Z,10.57
2023-01-19T15:16:23.572Z,11.17
2023-01-19T15:18:50.348Z,11.34
2023-01-19T15:21:23.412Z,11.06
2023-01-19T15:23:50.256Z,10.71
2023-01-19T15:26:22.081Z,10.19
2023-01-19T15:28:49.376Z,10.53
2023-01-19T15:31:18.569Z,10.41
2023-01-19T15:33:45.898Z,10.47
2023-01-19T15:36:15.293Z,10.09
2023-01-19T15:38:43.567Z,10.07
2023-01-19T15:41:26.580Z,10.11
2023-01-19T15:43:53.968Z,9.97
2023-01-19T15:46:20.986Z,9.75
2023-01-19T15:48:48.339Z,9.75
2023-01-19T15:51:17.824Z,9.64
2023-01-19T15:53:45.128Z,9.94
2023-01-19T15:56:19.520Z,9.70
2023-01-19T15:58:46.364Z,9.88
2023-01-19T16:01:15.084Z,9.75
2023-01-19T16:03:42.527Z,9.58
2023-01-19T16:06:10.159Z,9.74
2023-01-19T16:08:37.486Z,9.94
2023-01-19T16:11:10.337Z,9.99
2023-01-19T16:13:37.717Z,9.73
2023-01-19T16:16:06.648Z,9.75
2023-01-19T16:18:33.738Z,9.39
2023-01-19T16:21:01.148Z,9.57
2023-01-19T16:23:27.724Z,9.50
2023-01-19T16:26:07.646Z,9.47
2023-01-19T16:28:35.859Z,9.43
2023-01-19T16:31:02.936Z,9.09
2023-01-19T16:33:29.981Z,9.22
2023-01-19T16:35:56.641Z,9.21
2023-01-19T16:38:23.363Z,9.40
2023-01-19T16:40:50.042Z,8.84
2023-01-19T16:43:18.156Z,9.08
2023-01-19T16:45:58.681Z,9.02
2023-01-19T16:48:25.992Z,9.05
2023-01-19T16:51:04.670Z,9.15
2023-01-19T16:53:34.664Z,9.10
2023-01-19T16:56:06.497Z,9.11
2023-01-19T16:58:33.185Z,8.71
2023-01-19T17:00:59.852Z,8.72
2023-01-19T17:03:26.976Z,8.66
2023-01-19T17:05:53.524Z,8.57
2023-01-19T17:08:20.596Z,8.70
2023-01-19T17:10:47.928Z,8.47
2023-01-19T17:13:14.758Z,8.63
2023-01-19T17:15:41.473Z,8.80
2023-01-19T17:18:09.965Z,8.93
2023-01-19T17:20:36.648Z,8.87
2023-01-19T17:23:03.414Z,8.81
2023-01-19T17:25:30.068Z,8.84
2023-01-19T17:27:58.837Z,8.96
2023-01-19T17:30:25.582Z,9.40
2023-01-19T17:32:52.689Z,9.12
2023-01-19T17:35:19.287Z,9.23
2023-01-19T17:37:46.005Z,9.23
2023-01-19T17:40:12.762Z,9.20
2023-01-19T17:42:41.798Z,9.22
2023-01-19T17:45:10.798Z,9.04
2023-01-19T17:47:38.476Z,9.13
2023-01-19T17:50:05.472Z,9.29
2023-01-19T17:52:32.076Z,9.39
2023-01-19T17:54:58.613Z,9.31
2023-01-19T17:57:25.387Z,9.61
2023-01-19T17:59:51.968Z,9.18
2023-01-19T18:02:19.037Z,9.47
2023-01-19T18:04:45.710Z,9.20
2023-01-19T18:07:12.330Z,9.03
2023-01-19T18:09:38.817Z,9.06
2023-01-19T18:12:05.462Z,9.15
2023-01-19T18:14:31.936Z,9.04
2023-01-19T18:16:58.512Z,9.34
2023-01-19T18:19:25.192Z,9.58
2023-01-19T18:21:51.905Z,9.67
2023-01-19T18:24:18.586Z,9.43
2023-01-19T18:26:45.267Z,9.09
2023-01-19T18:29:11.814Z,9.19
2023-01-19T18:31:38.399Z,9.51
2023-01-19T18:34:04.956Z,9.47
2023-01-19T18:36:32.535Z,9.34
2023-01-19T18:39:02.277Z,9.67
2023-01-19T18:41:29.954Z,9.60
2023-01-19T18:43:58.708Z,9.66
2023-01-19T18:46:25.944Z,9.58
2023-01-19T18:48:52.927Z,9.79
2023-01-19T18:51:19.919Z,9.79
2023-01-19T18:53:46.628Z,9.67
2023-01-19T18:56:15.683Z,9.72
2023-01-19T18:58:43.282Z,9.74
2023-01-19T19:01:39.411Z,10.10
2023-01-19T19:04:07.067Z,9.77
2023-01-19T19:06:34.367Z,9.54
2023-01-19T19:09:01.018Z,9.58
2023-01-19T19:11:28.033Z,9.73
2023-01-19T19:14:00.283Z,9.90
2023-01-19T19:16:28.401Z,9.86
2023-01-19T19:18:55.621Z,9.89
2023-01-19T19:21:25.142Z,10.08
2023-01-19T19:23:56.462Z,9.99
2023-01-19T19:26:24.289Z,9.90
2023-01-19T19:28:50.937Z,9.79
2023-01-19T19:31:21.140Z,9.90
2023-01-19T19:33:48.964Z,10.20
2023-01-19T19:36:15.552Z,10.22
2023-01-19T19:38:44.264Z,10.21
2023-01-19T19:41:16.730Z,10.15
2023-01-19T19:43:43.551Z,10.18
2023-01-19T19:46:13.786Z,10.38
2023-01-19T19:48:40.465Z,10.09
2023-01-19T19:51:18.046Z,10.16
2023-01-19T19:53:46.135Z,9.63
2023-01-19T19:56:13.404Z,9.28
2023-01-19T19:58:41.895Z,9.23
2023-01-19T20:01:11.157Z,9.53
2023-01-19T20:03:38.578Z,9.57
2023-01-19T20:06:10.452Z,9.77
2023-01-19T20:08:37.089Z,9.67
2023-01-19T20:11:09.236Z,9.66
2023-01-19T20:13:38.328Z,9.59
2023-01-19T20:16:09.983Z,9.68
2023-01-19T20:18:38.713Z,9.71
2023-01-19T20:21:12.968Z,9.49
2023-01-19T20:23:40.557Z,9.38
2023-01-19T20:26:09.128Z,9.08
2023-01-19T20:28:37.235Z,9.22
2023-01-19T20:31:19.256Z,9.31
2023-01-19T20:33:47.901Z,9.12
2023-01-19T20:36:15.181Z,8.74
2023-01-19T20:38:42.401Z,8.79
2023-01-19T20:41:10.437Z,8.78
2023-01-19T20:43:37.423Z,8.90
2023-01-19T20:46:04.329Z,8.93
2023-01-19T20:48:31.299Z,8.91
2023-01-19T20:51:09.073Z,8.92
2023-01-19T20:53:36.917Z,9.02
2023-01-19T20:56:09.889Z,9.23
2023-01-19T20:58:37.415Z,9.26
2023-01-19T21:01:14.430Z,9.37
2023-01-19T21:03:42.274Z,9.36
2023-01-19T21:06:09.622Z,9.19
2023-01-19T21:08:36.665Z,8.95
2023-01-19T21:11:04.136Z,8.72
2023-01-19T21:13:31.621Z,8.99
2023-01-19T21:15:58.801Z,9.29
2023-01-19T21:18:27.738Z,9.11
2023-01-19T21:20:55.255Z,9.02
2023-01-19T21:23:22.132Z,8.92
2023-01-19T21:25:54.194Z,8.91
2023-01-19T21:28:22.610Z,8.86
2023-01-19T21:30:50.325Z,8.67
2023-01-19T21:33:17.477Z,8.88
2023-01-19T21:35:52.046Z,9.12
2023-01-19T21:38:19.667Z,9.33
2023-01-19T21:40:46.541Z,9.02
2023-01-19T21:43:13.721Z,9.19
2023-01-19T21:45:42.988Z,9.16
2023-01-19T21:48:09.997Z,9.22
2023-01-19T21:50:36.559Z,9.31
2023-01-19T21:53:05.866Z,8.90
2023-01-19T21:55:33.126Z,8.81
2023-01-19T21:57:59.671Z,9.08
2023-01-19T22:00:29.390Z,9.13
2023-01-19T22:03:03.816Z,9.26
2023-01-19T22:05:36.525Z,8.85
2023-01-19T22:08:04.822Z,8.80
2023-01-19T22:10:31.531Z,8.68
2023-01-19T22:12:58.141Z,8.79
2023-01-19T22:15:24.787Z,8.87
2023-01-19T22:17:51.523Z,9.47
2023-01-19T22:20:18.197Z,9.22
2023-01-19T22:22:45.203Z,9.13
2023-01-19T22:25:12.420Z,9.37
2023-01-19T22:27:39.252Z,9.26
2023-01-19T22:30:06.570Z,9.23
2023-01-19T22:32:33.157Z,9.16
2023-01-19T22:34:59.669Z,9.18
2023-01-19T22:37:26.236Z,9.20
2023-01-19T22:39:53.219Z,9.43
2023-01-19T22:42:19.849Z,9.66
2023-01-19T22:44:46.816Z,9.84
2023-01-19T22:47:13.898Z,9.75
2023-01-19T22:49:40.690Z,9.02
2023-01-19T22:52:07.521Z,9.24
2023-01-19T22:54:34.211Z,9.43
2023-01-19T22:57:00.862Z,9.28
2023-01-19T22:59:27.564Z,9.11
2023-01-19T23:01:54.432Z,9.10
2023-01-19T23:04:21.115Z,9.15
2023-01-19T23:06:50.337Z,9.13
2023-01-19T23:09:18.288Z,8.86
2023-01-19T23:11:51.166Z,8.65
2023-01-19T23:14:20.971Z,8.75
2023-01-19T23:16:47.787Z,8.62
2023-01-19T23:19:16.943Z,8.65
2023-01-19T23:21:44.467Z,8.43
2023-01-19T23:24:11.646Z,8.70
2023-01-19T23:26:38.535Z,8.80
2023-01-19T23:29:07.988Z,8.69
2023-01-19T23:31:36.881Z,8.71
2023-01-19T23:34:06.355Z,8.83
2023-01-19T23:36:35.063Z,8.99
2023-01-19T23:39:05.056Z,9.02
2023-01-19T23:41:34.472Z,9.02
2023-01-19T23:44:01.339Z,8.74
2023-01-19T23:46:28.611Z,8.64
2023-01-19T23:48:55.467Z,8.70
2023-01-19T23:51:24.531Z,8.72
2023-01-19T23:53:51.811Z,8.57
2023-01-19T23:56:22.799Z,8.63
2023-01-19T23:59:07.486Z,8.97
